createdAt,value
2023-01-20T00:02:42.110Z,17.80
2023-01-20T00:07:44.328Z,24.80
2023-01-20T00:12:46.419Z,16.48
2023-01-20T00:17:48.576Z,16.40
2023-01-20T00:22:50.661Z,15.27
2023-01-20T00:27:55.781Z,11.43
2023-01-20T00:32:58.007Z,10.93
2023-01-20T00:38:00.110Z,21.85
2023-01-20T00:43:02.230Z,19.95
2023-01-20T00:48:04.535Z,14.57
2023-01-20T00:53:06.871Z,16.75
2023-01-20T00:58:09.364Z,22.90
2023-01-20T01:03:12.817Z,17.92
2023-01-20T01:08:14.983Z,15.13
2023-01-20T01:13:17.125Z,18.20
2023-01-20T01:18:19.287Z,16.65
2023-01-20T01:23:21.415Z,20.13
2023-01-20T01:28:23.609Z,13.73
2023-01-20T01:33:25.897Z,14.00
2023-01-20T01:38:28.809Z,20.38
2023-01-20T01:43:33.889Z,15.57
2023-01-20T01:48:42.559Z,21.75
2023-01-20T01:53:49.092Z,15.93
2023-01-20T01:58:53.313Z,17.40
2023-01-20T02:04:07.611Z,16.73
2023-01-20T02:09:09.892Z,14.90
2023-01-20T02:14:12.278Z,16.65
2023-01-20T02:19:17.712Z,16.73
2023-01-20T02:25:17.404Z,13.85
2023-01-20T02:30:37.468Z,10.10
2023-01-20T02:36:11.107Z,15.95
2023-01-20T02:41:23.006Z,15.38
2023-01-20T02:46:49.579Z,9.30
2023-01-20T02:52:01.290Z,11.63
2023-01-20T02:57:06.998Z,15.18
2023-01-20T03:02:20.817Z,8.80
2023-01-20T03:07:25.986Z,11.02
2023-01-20T03:12:40.253Z,13.90
2023-01-20T03:17:42.513Z,12.50
2023-01-20T03:22:44.761Z,9.40
2023-01-20T03:27:47.325Z,13.50
2023-01-20T03:32:51.283Z,8.27
2023-01-20T03:37:53.516Z,8.80
2023-01-20T03:43:41.698Z,9.45
2023-01-20T03:49:18.897Z,15.55
2023-01-20T03:54:26.276Z,10.88
2023-01-20T03:59:28.615Z,9.65
2023-01-20T04:04:36.595Z,10.18
2023-01-20T04:09:44.507Z,17.10
2023-01-20T04:14:46.629Z,7.50
2023-01-20T04:19:48.994Z,17.17
2023-01-20T04:24:55.668Z,14.43
2023-01-20T04:29:57.732Z,7.63
2023-01-20T04:34:59.815Z,10.63
2023-01-20T04:40:01.918Z,11.80
2023-01-20T04:45:05.166Z,7.38
2023-01-20T04:50:08.589Z,11.45
2023-01-20T04:55:11.489Z,8.15
2023-01-20T05:00:19.888Z,8.68
2023-01-20T05:05:22.031Z,14.82
2023-01-20T05:10:24.344Z,10.30
2023-01-20T05:15:26.876Z,12.18
2023-01-20T05:20:29.620Z,14.20
2023-01-20T05:25:31.733Z,12.07
2023-01-20T05:30:33.921Z,7.72
2023-01-20T05:35:38.705Z,6.75
2023-01-20T05:40:40.783Z,11.68
2023-01-20T05:45:43.116Z,11.32
2023-01-20T05:50:45.264Z,9.90
2023-01-20T05:55:47.445Z,11.00
2023-01-20T06:00:49.492Z,12.50
2023-01-20T06:05:51.564Z,8.20
2023-01-20T06:10:54.000Z,12.43
2023-01-20T06:15:56.808Z,6.90
2023-01-20T06:20:59.266Z,4.30
2023-01-20T06:26:07.042Z,7.07
2023-01-20T06:31:15.190Z,13.80
2023-01-20T06:36:17.798Z,13.23
2023-01-20T06:41:20.812Z,9.82
2023-01-20T06:46:23.054Z,7.78
2023-01-20T06:51:25.232Z,6.63
2023-01-20T06:56:27.655Z,18.23
2023-01-20T07:01:31.260Z,14.88
2023-01-20T07:06:40.777Z,12.73
2023-01-20T07:11:42.944Z,16.77
2023-01-20T07:16:46.044Z,7.63
2023-01-20T07:21:48.206Z,11.65
2023-01-20T07:26:53.803Z,12.40
2023-01-20T07:31:56.223Z,7.53
2023-01-20T07:37:01.352Z,15.75
2023-01-20T07:42:03.558Z,19.83
2023-01-20T07:47:05.657Z,14.98
2023-01-20T07:52:07.773Z,9.98
2023-01-20T07:57:09.930Z,10.45
2023-01-20T08:02:12.068Z,14.95
2023-01-20T08:07:14.215Z,11.07
2023-01-20T08:12:16.295Z,9.85
2023-01-20T08:17:18.401Z,27.80
2023-01-20T08:22:20.553Z,12.50
2023-01-20T08:27:22.744Z,11.27
2023-01-20T08:32:24.797Z,12.20
2023-01-20T08:37:26.944Z,13.30
2023-01-20T08:42:29.080Z,21.50
2023-01-20T08:47:31.293Z,7.50
2023-01-20T08:52:34.155Z,6.68
2023-01-20T08:57:36.878Z,12.77
2023-01-20T09:02:39.040Z,8.48
2023-01-20T09:07:41.135Z,32.33
2023-01-20T09:12:43.240Z,17.58
2023-01-20T09:17:45.309Z,26.27
2023-01-20T09:22:47.552Z,18.27
2023-01-20T09:27:49.654Z,8.82
2023-01-20T09:32:53.900Z,15.65
2023-01-20T09:38:14.424Z,10.98
2023-01-20T09:43:56.880Z,14.60
2023-01-20T09:49:25.438Z,12.52
2023-01-20T09:54:34.345Z,15.52
2023-01-20T09:59:49.674Z,7.57
2023-01-20T10:05:08.532Z,7.85
2023-01-20T10:10:19.245Z,17.85
2023-01-20T10:15:43.059Z,10.60
2023-01-20T10:21:09.604Z,8.88
2023-01-20T10:26:11.654Z,17.33
2023-01-20T10:31:28.521Z,10.30
2023-01-20T10:36:34.904Z,11.65
2023-01-20T10:42:20.342Z,10.45
2023-01-20T10:47:44.130Z,9.63
2023-01-20T10:53:17.246Z,14.88
2023-01-20T10:58:37.869Z,11.45
2023-01-20T11:03:42.615Z,12.95
2023-01-20T11:08:44.742Z,11.73
2023-01-20T11:13:47.265Z,36.25
2023-01-20T11:19:04.348Z,31.08
2023-01-20T11:24:30.809Z,17.00
2023-01-20T11:29:38.620Z,22.98
2023-01-20T11:34:49.743Z,19.02
2023-01-20T11:40:26.333Z,20.80
2023-01-20T11:45:34.803Z,17.00
2023-01-20T11:50:54.540Z,16.52
2023-01-20T11:55:58.295Z,16.65
2023-01-20T12:01:08.399Z,22.98
2023-01-20T12:06:29.030Z,19.17
2023-01-20T12:11:36.202Z,37.53
2023-01-20T12:16:42.928Z,21.25
2023-01-20T12:21:53.612Z,18.60
2023-01-20T12:26:57.321Z,11.60
2023-01-20T12:32:01.058Z,9.55
2023-01-20T12:37:18.464Z,14.85
2023-01-20T12:42:47.841Z,10.25
2023-01-20T12:48:06.202Z,8.38
2023-01-20T12:53:31.055Z,8.23
2023-01-20T12:58:49.973Z,8.88
2023-01-20T13:04:05.048Z,11.00
2023-01-20T13:09:24.011Z,21.05
2023-01-20T13:14:41.320Z,40.78
2023-01-20T13:19:49.586Z,18.95
2023-01-20T13:24:58.250Z,33.20
2023-01-20T13:30:04.451Z,14.00
2023-01-20T13:35:25.607Z,13.73
2023-01-20T13:40:37.203Z,17.13
2023-01-20T13:45:39.406Z,6.90
2023-01-20T13:50:46.770Z,4.13
2023-01-20T13:55:48.939Z,8.52
2023-01-20T14:01:00.137Z,6.57
2023-01-20T14:06:07.512Z,3.97
2023-01-20T14:11:24.165Z,1.58
2023-01-20T14:16:30.884Z,5.38
2023-01-20T14:21:41.270Z,4.78
2023-01-20T14:26:44.444Z,5.15
2023-01-20T14:31:46.923Z,3.00
2023-01-20T14:36:49.402Z,4.97
2023-01-20T14:41:52.658Z,6.13
2023-01-20T14:46:58.530Z,4.82
2023-01-20T14:52:01.968Z,9.82
2023-01-20T14:57:21.320Z,4.82
2023-01-20T15:07:30.824Z,11.02
2023-01-20T15:12:52.996Z,2.97
2023-01-20T15:18:21.964Z,7.88
2023-01-20T15:23:33.181Z,12.80
2023-01-20T15:28:41.475Z,16.38
2023-01-20T15:33:44.657Z,3.38
2023-01-20T15:38:46.799Z,3.67
2023-01-20T15:43:52.448Z,2.67
2023-01-20T15:48:54.549Z,3.38
2023-01-20T15:53:56.658Z,2.58
2023-01-20T15:58:58.856Z,1.50
2023-01-20T16:04:00.962Z,5.68
2023-01-20T16:09:13.928Z,1.25
2023-01-20T16:14:16.102Z,2.65
2023-01-20T16:19:18.215Z,4.32
2023-01-20T16:24:20.297Z,10.13
2023-01-20T16:29:22.415Z,5.50
2023-01-20T16:34:24.689Z,6.22
2023-01-20T16:39:27.043Z,3.78
2023-01-20T16:44:29.659Z,11.85
2023-01-20T16:49:31.757Z,13.32
2023-01-20T16:54:33.841Z,7.03
2023-01-20T16:59:36.086Z,4.15
2023-01-20T17:04:38.963Z,15.70
2023-01-20T17:09:43.558Z,38.13
2023-01-20T17:14:45.633Z,38.15
2023-01-20T17:19:47.812Z,36.35
2023-01-20T17:24:49.876Z,46.40
2023-01-20T17:29:51.928Z,55.13
2023-01-20T17:34:54.038Z,104.75
2023-01-20T17:39:56.116Z,67.35
2023-01-20T17:45:01.969Z,43.65
2023-01-20T17:50:04.897Z,42.88
2023-01-20T17:55:07.511Z,48.72
2023-01-20T18:00:10.509Z,32.60
2023-01-20T18:05:12.704Z,29.75
2023-01-20T18:10:17.346Z,61.55
2023-01-20T18:15:21.314Z,41.83
2023-01-20T18:20:23.858Z,42.00
2023-01-20T18:25:25.924Z,34.67
2023-01-20T18:30:28.014Z,23.02
2023-01-20T18:35:30.866Z,34.08
2023-01-20T18:40:33.161Z,21.75
2023-01-20T18:45:35.304Z,20.55
2023-01-20T18:50:37.611Z,20.58
2023-01-20T18:55:39.912Z,22.45
2023-01-20T19:00:42.217Z,18.75
2023-01-20T19:05:44.395Z,30.98
2023-01-20T19:10:46.573Z,21.42
2023-01-20T19:15:48.642Z,31.40
2023-01-20T19:20:51.142Z,36.17
2023-01-20T19:26:09.998Z,33.90
2023-01-20T19:31:18.424Z,52.70
2023-01-20T19:36:20.774Z,31.05
2023-01-20T19:41:27.794Z,24.67
2023-01-20T19:46:32.443Z,24.75
2023-01-20T19:51:34.730Z,30.48
2023-01-20T19:56:37.135Z,43.72
2023-01-20T20:01:39.540Z,24.80
2023-01-20T20:06:46.273Z,31.40
2023-01-20T20:11:50.288Z,28.73
2023-01-20T20:16:52.570Z,28.85
2023-01-20T20:21:57.633Z,30.48
2023-01-20T20:26:59.912Z,32.33
2023-01-20T20:32:02.213Z,40.15
2023-01-20T20:37:04.315Z,21.88
2023-01-20T20:42:06.421Z,29.55
2023-01-20T20:47:08.697Z,34.80
2023-01-20T20:52:10.896Z,29.15
2023-01-20T20:57:13.106Z,32.60
2023-01-20T21:02:15.252Z,32.25
2023-01-20T21:07:19.333Z,29.67
2023-01-20T21:12:21.602Z,28.05
2023-01-20T21:17:23.670Z,22.30
2023-01-20T21:22:26.087Z,26.23
2023-01-20T21:27:28.239Z,19.23
2023-01-20T21:32:30.876Z,27.13
2023-01-20T21:37:33.101Z,24.27
2023-01-20T21:42:35.223Z,38.03
2023-01-20T21:47:37.383Z,32.40
2023-01-20T21:52:42.361Z,39.97
2023-01-20T21:57:50.166Z,27.52
2023-01-20T22:02:53.188Z,26.50
2023-01-20T22:07:55.265Z,20.77
2023-01-20T22:12:57.417Z,37.72
2023-01-20T22:17:59.477Z,35.40
2023-01-20T22:23:03.015Z,19.58
2023-01-20T22:28:05.322Z,20.13
2023-01-20T22:33:07.541Z,41.97
2023-01-20T22:38:10.942Z,28.80
2023-01-20T22:43:13.051Z,137.73
2023-01-20T22:48:15.222Z,47.42
2023-01-20T22:53:17.917Z,27.00
2023-01-20T22:58:20.196Z,24.88
2023-01-20T23:03:22.732Z,44.92
2023-01-20T23:08:28.918Z,28.48
2023-01-20T23:13:31.130Z,31.88
2023-01-20T23:18:33.416Z,34.97
2023-01-20T23:23:35.611Z,34.47
2023-01-20T23:28:37.855Z,34.35
2023-01-20T23:33:43.338Z,22.52
2023-01-20T23:38:45.990Z,24.38
2023-01-20T23:43:48.138Z,32.20
2023-01-20T23:48:50.375Z,26.77
2023-01-20T23:53:52.543Z,29.02
2023-01-20T23:58:54.901Z,24.35
